Belle Isle — FOXN — position and weather

sailwx.info

Track history (hours):
 
Tides and Currents Weather Stations Pressure Air Temp Water Temp Dewpoint Dewpoint Depression Visibility Wind Speed Wind Dir Waves Ship Positions

Belle Isle

Last reported at 2017-Feb-25 10:33 UTC. Time now 2017-Feb-25 16:05 UTC.
Position N 47°21' W 003°09'.

Length 16 m.

Type: SAR. MMSI: 227021500.

Date/timePositionNaut miles runAvg speedWind from/ knotsBaromVisibWave heightAir tempDewpointWater temp
2017-Feb-25 10:33N 47°21' W 003°09'0 0.0
2017-Feb-25 09:34N 47°21' W 003°09'  
2017-Feb-22 19:33N 47°22' W 003°09'5 5.5
2017-Feb-22 18:33N 47°28' W 003°08'2320.3
2017-Feb-22 17:27N 47°35' W 003°40'2518.4
2017-Feb-22 16:04N 47°42' W 004°15'1717.3
2017-Feb-22 15:05N 47°54' W 004°34'918.2
2017-Feb-22 14:33N 48°01' W 004°44'1918.7
2017-Feb-22 13:34N 48°19' W 004°48'1817.8
2017-Feb-22 12:33N 48°37' W 004°46'  
Track history (hours):
 
Tides and Currents Weather Stations Pressure Air Temp Water Temp Dewpoint Dewpoint Depression Visibility Wind Speed Wind Dir Waves Ship Positions

Belle Isle

Last reported at 2017-Feb-25 10:33 UTC. Time now 2017-Feb-25 16:05 UTC.
Position N 47°21' W 003°09'.

Length 16 m.

Type: SAR. MMSI: 227021500.

Date/timePositionNaut miles runAvg speedWind from/ knotsBaromVisibWave heightAir tempDewpointWater temp
2017-Feb-25 10:33N 47°21' W 003°09'0 0.0
2017-Feb-25 09:34N 47°21' W 003°09'  
2017-Feb-22 19:33N 47°22' W 003°09'5 5.5
2017-Feb-22 18:33N 47°28' W 003°08'2320.3
2017-Feb-22 17:27N 47°35' W 003°40'2518.4
2017-Feb-22 16:04N 47°42' W 004°15'1717.3
2017-Feb-22 15:05N 47°54' W 004°34'918.2
2017-Feb-22 14:33N 48°01' W 004°44'1918.7
2017-Feb-22 13:34N 48°19' W 004°48'1817.8
2017-Feb-22 12:33N 48°37' W 004°46'  

Dump ship's entire track history